sensor_id;sensor_type;location;lat;lon;timestamp;temperature;humidity
72762;SHT30;60886;55.034;73.150;2023-05-10T00:00:55;2.79;63.53
72762;SHT30;60886;55.034;73.150;2023-05-10T00:18:23;3.01;63.60
72762;SHT30;60886;55.034;73.150;2023-05-10T00:21:24;3.12;62.17
72762;SHT30;60886;55.034;73.150;2023-05-10T00:24:26;3.25;61.89
72762;SHT30;60886;55.034;73.150;2023-05-10T00:27:27;3.36;62.23
72762;SHT30;60886;55.034;73.150;2023-05-10T00:30:28;3.51;61.49
72762;SHT30;60886;55.034;73.150;2023-05-10T00:33:30;3.59;60.84
72762;SHT30;60886;55.034;73.150;2023-05-10T00:36:31;3.72;60.20
72762;SHT30;60886;55.034;73.150;2023-05-10T00:39:33;3.87;60.18
72762;SHT30;60886;55.034;73.150;2023-05-10T00:42:34;3.94;61.16
72762;SHT30;60886;55.034;73.150;2023-05-10T00:45:36;3.94;60.83
72762;SHT30;60886;55.034;73.150;2023-05-10T00:48:38;4.03;59.32
72762;SHT30;60886;55.034;73.150;2023-05-10T00:51:40;4.07;59.34
72762;SHT30;60886;55.034;73.150;2023-05-10T00:54:43;4.17;60.06
72762;SHT30;60886;55.034;73.150;2023-05-10T00:57:45;4.21;61.94
72762;SHT30;60886;55.034;73.150;2023-05-10T01:00:47;4.33;59.55
72762;SHT30;60886;55.034;73.150;2023-05-10T01:03:49;4.55;59.11
72762;SHT30;60886;55.034;73.150;2023-05-10T01:06:52;4.71;57.64
72762;SHT30;60886;55.034;73.150;2023-05-10T01:09:57;4.92;57.59
72762;SHT30;60886;55.034;73.150;2023-05-10T01:12:59;5.04;58.49
72762;SHT30;60886;55.034;73.150;2023-05-10T01:16:01;5.37;57.08
72762;SHT30;60886;55.034;73.150;2023-05-10T01:19:17;5.91;54.33
72762;SHT30;60886;55.034;73.150;2023-05-10T01:29:18;6.95;50.52
72762;SHT30;60886;55.034;73.150;2023-05-10T01:32:41;7.23;48.71
72762;SHT30;60886;55.034;73.150;2023-05-10T01:39:15;7.46;48.70
72762;SHT30;60886;55.034;73.150;2023-05-10T01:42:28;7.52;48.20
72762;SHT30;60886;55.034;73.150;2023-05-10T01:45:43;7.74;47.63
72762;SHT30;60886;55.034;73.150;2023-05-10T01:48:51;8.01;47.38
72762;SHT30;60886;55.034;73.150;2023-05-10T01:52:00;8.16;46.26
72762;SHT30;60886;55.034;73.150;2023-05-10T01:55:07;8.16;44.67
72762;SHT30;60886;55.034;73.150;2023-05-10T01:58:13;8.19;45.04
72762;SHT30;60886;55.034;73.150;2023-05-10T02:01:15;8.25;45.42
72762;SHT30;60886;55.034;73.150;2023-05-10T02:04:19;8.53;47.02
72762;SHT30;60886;55.034;73.150;2023-05-10T02:07:23;8.56;44.78
72762;SHT30;60886;55.034;73.150;2023-05-10T02:10:26;8.76;47.05
72762;SHT30;60886;55.034;73.150;2023-05-10T02:13:29;8.98;44.14
72762;SHT30;60886;55.034;73.150;2023-05-10T02:16:35;9.11;44.91
72762;SHT30;60886;55.034;73.150;2023-05-10T02:19:40;9.18;44.96
72762;SHT30;60886;55.034;73.150;2023-05-10T02:22:43;9.32;45.15
72762;SHT30;60886;55.034;73.150;2023-05-10T02:25:48;9.56;44.13
72762;SHT30;60886;55.034;73.150;2023-05-10T02:28:51;9.75;44.68
72762;SHT30;60886;55.034;73.150;2023-05-10T02:31:54;9.99;44.77
72762;SHT30;60886;55.034;73.150;2023-05-10T02:34:57;10.21;41.96
72762;SHT30;60886;55.034;73.150;2023-05-10T02:38:00;10.41;42.00
72762;SHT30;60886;55.034;73.150;2023-05-10T02:41:08;10.50;42.67
72762;SHT30;60886;55.034;73.150;2023-05-10T02:44:10;10.72;40.11
72762;SHT30;60886;55.034;73.150;2023-05-10T02:47:12;10.84;40.90
72762;SHT30;60886;55.034;73.150;2023-05-10T02:50:14;11.20;40.35
72762;SHT30;60886;55.034;73.150;2023-05-10T02:53:20;11.12;38.31
72762;SHT30;60886;55.034;73.150;2023-05-10T02:56:29;11.42;41.24
72762;SHT30;60886;55.034;73.150;2023-05-10T02:59:32;11.67;38.31
72762;SHT30;60886;55.034;73.150;2023-05-10T03:02:34;11.80;38.81
72762;SHT30;60886;55.034;73.150;2023-05-10T03:05:37;11.84;38.36
72762;SHT30;60886;55.034;73.150;2023-05-10T03:08:39;12.01;36.38
72762;SHT30;60886;55.034;73.150;2023-05-10T03:12:18;12.01;35.48
72762;SHT30;60886;55.034;73.150;2023-05-10T03:18:53;11.90;35.20
72762;SHT30;60886;55.034;73.150;2023-05-10T03:21:59;12.00;34.06
72762;SHT30;60886;55.034;73.150;2023-05-10T03:25:07;12.05;34.49
72762;SHT30;60886;55.034;73.150;2023-05-10T03:28:11;12.16;33.99
72762;SHT30;60886;55.034;73.150;2023-05-10T03:31:14;12.46;33.84
72762;SHT30;60886;55.034;73.150;2023-05-10T03:34:16;12.46;33.07
72762;SHT30;60886;55.034;73.150;2023-05-10T03:37:18;12.37;33.33
72762;SHT30;60886;55.034;73.150;2023-05-10T03:40:20;12.33;32.05
72762;SHT30;60886;55.034;73.150;2023-05-10T03:43:21;12.18;32.04
72762;SHT30;60886;55.034;73.150;2023-05-10T03:46:23;12.18;32.19
72762;SHT30;60886;55.034;73.150;2023-05-10T03:49:24;12.20;33.69
72762;SHT30;60886;55.034;73.150;2023-05-10T03:52:26;12.27;33.56
72762;SHT30;60886;55.034;73.150;2023-05-10T03:55:27;12.54;31.89
72762;SHT30;60886;55.034;73.150;2023-05-10T03:58:29;12.49;31.67
72762;SHT30;60886;55.034;73.150;2023-05-10T04:01:31;12.48;33.26
72762;SHT30;60886;55.034;73.150;2023-05-10T04:04:32;12.49;32.24
72762;SHT30;60886;55.034;73.150;2023-05-10T04:07:33;12.65;32.53
72762;SHT30;60886;55.034;73.150;2023-05-10T04:10:35;12.92;32.12
72762;SHT30;60886;55.034;73.150;2023-05-10T04:13:37;12.78;31.20
72762;SHT30;60886;55.034;73.150;2023-05-10T04:16:38;12.89;32.79
72762;SHT30;60886;55.034;73.150;2023-05-10T04:19:40;13.00;31.86
72762;SHT30;60886;55.034;73.150;2023-05-10T04:22:41;12.99;32.35
72762;SHT30;60886;55.034;73.150;2023-05-10T04:25:43;13.16;32.37
72762;SHT30;60886;55.034;73.150;2023-05-10T04:28:44;13.12;31.54
72762;SHT30;60886;55.034;73.150;2023-05-10T04:31:50;13.13;32.35
72762;SHT30;60886;55.034;73.150;2023-05-10T04:34:52;13.15;31.92
72762;SHT30;60886;55.034;73.150;2023-05-10T04:37:54;13.24;31.78
72762;SHT30;60886;55.034;73.150;2023-05-10T04:41:04;13.24;31.58
72762;SHT30;60886;55.034;73.150;2023-05-10T04:44:06;13.32;32.85
72762;SHT30;60886;55.034;73.150;2023-05-10T04:47:08;13.59;32.46
72762;SHT30;60886;55.034;73.150;2023-05-10T04:50:09;13.59;31.39
72762;SHT30;60886;55.034;73.150;2023-05-10T04:53:11;13.44;31.19
72762;SHT30;60886;55.034;73.150;2023-05-10T04:56:12;13.44;31.94
72762;SHT30;60886;55.034;73.150;2023-05-10T04:59:14;13.63;30.22
72762;SHT30;60886;55.034;73.150;2023-05-10T05:02:15;13.74;30.15
72762;SHT30;60886;55.034;73.150;2023-05-10T05:05:16;13.75;28.86
72762;SHT30;60886;55.034;73.150;2023-05-10T05:08:18;13.75;29.02
72762;SHT30;60886;55.034;73.150;2023-05-10T05:11:19;13.80;29.27
72762;SHT30;60886;55.034;73.150;2023-05-10T05:14:22;13.69;29.02
72762;SHT30;60886;55.034;73.150;2023-05-10T05:17:23;13.47;29.78
72762;SHT30;60886;55.034;73.150;2023-05-10T05:20:24;13.60;30.50
72762;SHT30;60886;55.034;73.150;2023-05-10T05:23:26;13.90;30.85
72762;SHT30;60886;55.034;73.150;2023-05-10T05:26:27;13.71;29.12
72762;SHT30;60886;55.034;73.150;2023-05-10T05:29:29;13.64;29.55
72762;SHT30;60886;55.034;73.150;2023-05-10T05:32:31;13.87;30.22
72762;SHT30;60886;55.034;73.150;2023-05-10T05:35:33;14.05;29.09
72762;SHT30;60886;55.034;73.150;2023-05-10T05:38:34;13.83;28.61
72762;SHT30;60886;55.034;73.150;2023-05-10T05:41:36;13.71;27.60
72762;SHT30;60886;55.034;73.150;2023-05-10T05:44:37;13.73;28.22
72762;SHT30;60886;55.034;73.150;2023-05-10T05:47:39;13.93;28.97
72762;SHT30;60886;55.034;73.150;2023-05-10T05:50:41;13.98;27.12
72762;SHT30;60886;55.034;73.150;2023-05-10T05:53:42;14.00;30.34
72762;SHT30;60886;55.034;73.150;2023-05-10T05:56:50;14.24;26.19
72762;SHT30;60886;55.034;73.150;2023-05-10T05:59:52;14.11;27.66
72762;SHT30;60886;55.034;73.150;2023-05-10T06:02:53;14.10;28.92
72762;SHT30;60886;55.034;73.150;2023-05-10T06:05:54;13.95;26.63
72762;SHT30;60886;55.034;73.150;2023-05-10T06:08:56;13.53;26.35
72762;SHT30;60886;55.034;73.150;2023-05-10T06:11:57;13.53;27.48
72762;SHT30;60886;55.034;73.150;2023-05-10T06:14:58;13.77;25.81
72762;SHT30;60886;55.034;73.150;2023-05-10T06:18:00;13.84;26.25
72762;SHT30;60886;55.034;73.150;2023-05-10T06:21:01;13.67;26.56
72762;SHT30;60886;55.034;73.150;2023-05-10T06:24:03;13.33;24.96
72762;SHT30;60886;55.034;73.150;2023-05-10T06:27:05;13.38;26.71
72762;SHT30;60886;55.034;73.150;2023-05-10T06:30:07;13.60;25.52
72762;SHT30;60886;55.034;73.150;2023-05-10T06:33:09;13.67;24.94
72762;SHT30;60886;55.034;73.150;2023-05-10T06:36:11;13.71;24.40
72762;SHT30;60886;55.034;73.150;2023-05-10T06:39:13;13.69;25.30
72762;SHT30;60886;55.034;73.150;2023-05-10T06:42:14;13.60;25.78
72762;SHT30;60886;55.034;73.150;2023-05-10T06:45:20;13.74;26.08
72762;SHT30;60886;55.034;73.150;2023-05-10T06:48:22;13.70;26.11
72762;SHT30;60886;55.034;73.150;2023-05-10T06:51:24;13.80;26.68
72762;SHT30;60886;55.034;73.150;2023-05-10T06:54:25;13.88;27.94
72762;SHT30;60886;55.034;73.150;2023-05-10T06:57:27;13.77;27.38
72762;SHT30;60886;55.034;73.150;2023-05-10T07:00:28;13.73;26.86
72762;SHT30;60886;55.034;73.150;2023-05-10T07:03:30;13.67;26.37
72762;SHT30;60886;55.034;73.150;2023-05-10T07:06:32;13.71;26.74
72762;SHT30;60886;55.034;73.150;2023-05-10T07:09:34;13.87;26.79
72762;SHT30;60886;55.034;73.150;2023-05-10T07:12:36;13.84;26.88
72762;SHT30;60886;55.034;73.150;2023-05-10T07:15:38;13.69;27.29
72762;SHT30;60886;55.034;73.150;2023-05-10T07:18:49;13.67;27.16
72762;SHT30;60886;55.034;73.150;2023-05-10T07:21:51;13.93;26.84
72762;SHT30;60886;55.034;73.150;2023-05-10T07:24:53;14.04;27.02
72762;SHT30;60886;55.034;73.150;2023-05-10T07:27:54;14.24;27.40
72762;SHT30;60886;55.034;73.150;2023-05-10T07:30:56;14.46;26.85
72762;SHT30;60886;55.034;73.150;2023-05-10T07:33:57;14.46;26.01
72762;SHT30;60886;55.034;73.150;2023-05-10T07:36:59;14.42;26.12
72762;SHT30;60886;55.034;73.150;2023-05-10T07:40:00;14.32;26.92
72762;SHT30;60886;55.034;73.150;2023-05-10T07:43:02;14.36;25.98
72762;SHT30;60886;55.034;73.150;2023-05-10T07:46:04;14.62;26.13
72762;SHT30;60886;55.034;73.150;2023-05-10T07:49:06;14.55;25.74
72762;SHT30;60886;55.034;73.150;2023-05-10T07:52:07;14.49;26.23
72762;SHT30;60886;55.034;73.150;2023-05-10T07:55:09;14.24;26.49
72762;SHT30;60886;55.034;73.150;2023-05-10T07:58:10;14.21;26.67
72762;SHT30;60886;55.034;73.150;2023-05-10T08:01:12;14.41;26.87
72762;SHT30;60886;55.034;73.150;2023-05-10T08:04:13;14.41;27.11
72762;SHT30;60886;55.034;73.150;2023-05-10T08:07:15;14.58;25.82
72762;SHT30;60886;55.034;73.150;2023-05-10T08:10:16;14.72;24.82
72762;SHT30;60886;55.034;73.150;2023-05-10T08:13:18;14.79;24.77
72762;SHT30;60886;55.034;73.150;2023-05-10T08:16:20;14.80;24.25
72762;SHT30;60886;55.034;73.150;2023-05-10T08:19:21;14.79;25.21
72762;SHT30;60886;55.034;73.150;2023-05-10T08:22:23;14.72;25.42
72762;SHT30;60886;55.034;73.150;2023-05-10T08:25:25;14.95;24.41
72762;SHT30;60886;55.034;73.150;2023-05-10T08:28:26;15.02;24.38
72762;SHT30;60886;55.034;73.150;2023-05-10T08:31:29;15.22;25.05
72762;SHT30;60886;55.034;73.150;2023-05-10T08:34:30;15.54;24.35
72762;SHT30;60886;55.034;73.150;2023-05-10T08:37:32;15.51;23.97
72762;SHT30;60886;55.034;73.150;2023-05-10T08:40:42;15.46;24.49
72762;SHT30;60886;55.034;73.150;2023-05-10T08:43:44;15.49;25.27
72762;SHT30;60886;55.034;73.150;2023-05-10T08:46:52;15.57;25.54
72762;SHT30;60886;55.034;73.150;2023-05-10T08:49:54;15.72;25.13
72762;SHT30;60886;55.034;73.150;2023-05-10T08:52:58;15.95;24.56
72762;SHT30;60886;55.034;73.150;2023-05-10T08:56:02;15.95;25.35
72762;SHT30;60886;55.034;73.150;2023-05-10T08:59:03;15.71;24.50
72762;SHT30;60886;55.034;73.150;2023-05-10T09:02:05;15.71;24.19
72762;SHT30;60886;55.034;73.150;2023-05-10T09:05:07;15.44;24.51
72762;SHT30;60886;55.034;73.150;2023-05-10T09:08:10;15.23;25.16
72762;SHT30;60886;55.034;73.150;2023-05-10T09:11:13;15.47;24.39
72762;SHT30;60886;55.034;73.150;2023-05-10T09:14:15;15.53;24.12
72762;SHT30;60886;55.034;73.150;2023-05-10T09:17:16;15.55;24.22
72762;SHT30;60886;55.034;73.150;2023-05-10T09:20:18;15.61;24.44
72762;SHT30;60886;55.034;73.150;2023-05-10T09:23:19;15.58;24.65
72762;SHT30;60886;55.034;73.150;2023-05-10T09:26:23;15.46;24.87
72762;SHT30;60886;55.034;73.150;2023-05-10T09:29:25;15.20;24.91
72762;SHT30;60886;55.034;73.150;2023-05-10T09:32:47;15.16;25.77
72762;SHT30;60886;55.034;73.150;2023-05-10T09:35:51;15.11;25.38
72762;SHT30;60886;55.034;73.150;2023-05-10T09:38:57;15.23;24.65
72762;SHT30;60886;55.034;73.150;2023-05-10T09:42:00;15.40;24.95
72762;SHT30;60886;55.034;73.150;2023-05-10T09:45:04;15.64;24.48
72762;SHT30;60886;55.034;73.150;2023-05-10T09:48:11;15.55;24.10
72762;SHT30;60886;55.034;73.150;2023-05-10T09:51:20;15.49;24.68
72762;SHT30;60886;55.034;73.150;2023-05-10T09:54:22;15.41;24.95
72762;SHT30;60886;55.034;73.150;2023-05-10T09:57:24;15.43;24.60
72762;SHT30;60886;55.034;73.150;2023-05-10T10:00:27;15.54;24.97
72762;SHT30;60886;55.034;73.150;2023-05-10T10:03:30;15.54;24.33
72762;SHT30;60886;55.034;73.150;2023-05-10T10:06:38;15.67;24.36
72762;SHT30;60886;55.034;73.150;2023-05-10T10:09:40;15.70;24.35
72762;SHT30;60886;55.034;73.150;2023-05-10T10:12:42;15.67;24.95
72762;SHT30;60886;55.034;73.150;2023-05-10T10:15:43;15.87;25.06
72762;SHT30;60886;55.034;73.150;2023-05-10T10:18:46;15.97;24.37
72762;SHT30;60886;55.034;73.150;2023-05-10T10:21:50;15.91;25.33
72762;SHT30;60886;55.034;73.150;2023-05-10T10:24:52;15.98;25.13
72762;SHT30;60886;55.034;73.150;2023-05-10T10:28:22;15.98;24.17
72762;SHT30;60886;55.034;73.150;2023-05-10T10:34:33;16.25;24.89
72762;SHT30;60886;55.034;73.150;2023-05-10T10:37:45;16.36;24.35
72762;SHT30;60886;55.034;73.150;2023-05-10T10:40:47;16.41;24.51
72762;SHT30;60886;55.034;73.150;2023-05-10T10:44:22;16.36;23.15
72762;SHT30;60886;55.034;73.150;2023-05-10T10:47:29;16.32;23.39
72762;SHT30;60886;55.034;73.150;2023-05-10T10:50:43;16.48;23.83
72762;SHT30;60886;55.034;73.150;2023-05-10T10:53:47;16.48;23.40
72762;SHT30;60886;55.034;73.150;2023-05-10T10:57:22;16.41;24.09
72762;SHT30;60886;55.034;73.150;2023-05-10T11:00:29;16.30;23.85
72762;SHT30;60886;55.034;73.150;2023-05-10T11:03:34;16.38;24.40
72762;SHT30;60886;55.034;73.150;2023-05-10T11:06:36;16.41;24.01
72762;SHT30;60886;55.034;73.150;2023-05-10T11:09:40;16.30;23.68
72762;SHT30;60886;55.034;73.150;2023-05-10T11:13:06;16.33;24.02
72762;SHT30;60886;55.034;73.150;2023-05-10T11:19:27;16.48;24.78
72762;SHT30;60886;55.034;73.150;2023-05-10T11:22:28;16.48;23.27
72762;SHT30;60886;55.034;73.150;2023-05-10T11:25:30;16.46;23.85
72762;SHT30;60886;55.034;73.150;2023-05-10T11:28:32;16.52;23.34
72762;SHT30;60886;55.034;73.150;2023-05-10T11:31:33;16.52;24.12
72762;SHT30;60886;55.034;73.150;2023-05-10T11:34:35;16.49;23.82
72762;SHT30;60886;55.034;73.150;2023-05-10T11:37:37;16.55;25.44
72762;SHT30;60886;55.034;73.150;2023-05-10T11:40:42;16.35;24.62
72762;SHT30;60886;55.034;73.150;2023-05-10T11:43:48;16.43;24.21
72762;SHT30;60886;55.034;73.150;2023-05-10T11:46:50;16.46;24.17
72762;SHT30;60886;55.034;73.150;2023-05-10T11:49:52;16.12;24.78
72762;SHT30;60886;55.034;73.150;2023-05-10T11:52:56;16.04;24.69
72762;SHT30;60886;55.034;73.150;2023-05-10T11:56:09;16.04;25.74
72762;SHT30;60886;55.034;73.150;2023-05-10T11:59:14;16.04;25.36
72762;SHT30;60886;55.034;73.150;2023-05-10T12:02:16;15.98;24.86
72762;SHT30;60886;55.034;73.150;2023-05-10T12:05:17;15.92;24.70
72762;SHT30;60886;55.034;73.150;2023-05-10T12:08:23;15.92;25.42
72762;SHT30;60886;55.034;73.150;2023-05-10T12:11:27;15.95;26.06
72762;SHT30;60886;55.034;73.150;2023-05-10T12:14:28;15.95;25.44
72762;SHT30;60886;55.034;73.150;2023-05-10T12:17:34;15.91;23.95
72762;SHT30;60886;55.034;73.150;2023-05-10T12:20:38;15.85;24.45
72762;SHT30;60886;55.034;73.150;2023-05-10T12:23:40;15.75;24.56
72762;SHT30;60886;55.034;73.150;2023-05-10T12:26:50;15.72;24.16
72762;SHT30;60886;55.034;73.150;2023-05-10T12:29:52;15.70;23.63
72762;SHT30;60886;55.034;73.150;2023-05-10T12:32:54;15.68;24.20
72762;SHT30;60886;55.034;73.150;2023-05-10T12:36:00;15.68;23.77
72762;SHT30;60886;55.034;73.150;2023-05-10T12:39:03;15.58;25.09
72762;SHT30;60886;55.034;73.150;2023-05-10T12:42:04;15.53;23.66
72762;SHT30;60886;55.034;73.150;2023-05-10T12:45:07;15.53;24.79
72762;SHT30;60886;55.034;73.150;2023-05-10T12:48:08;15.54;23.37
72762;SHT30;60886;55.034;73.150;2023-05-10T12:51:10;15.53;24.31
72762;SHT30;60886;55.034;73.150;2023-05-10T12:54:13;15.50;23.46
72762;SHT30;60886;55.034;73.150;2023-05-10T12:57:15;15.54;23.84
72762;SHT30;60886;55.034;73.150;2023-05-10T13:00:16;15.47;24.32
72762;SHT30;60886;55.034;73.150;2023-05-10T13:03:19;15.44;24.60
72762;SHT30;60886;55.034;73.150;2023-05-10T13:06:20;15.39;24.52
72762;SHT30;60886;55.034;73.150;2023-05-10T13:09:21;15.40;24.60
72762;SHT30;60886;55.034;73.150;2023-05-10T13:12:23;15.44;24.80
72762;SHT30;60886;55.034;73.150;2023-05-10T13:15:25;15.43;25.36
72762;SHT30;60886;55.034;73.150;2023-05-10T13:18:27;15.40;24.40
72762;SHT30;60886;55.034;73.150;2023-05-10T13:21:28;15.41;24.46
72762;SHT30;60886;55.034;73.150;2023-05-10T13:24:30;15.37;24.84
72762;SHT30;60886;55.034;73.150;2023-05-10T13:27:32;15.27;25.65
72762;SHT30;60886;55.034;73.150;2023-05-10T13:30:33;15.19;25.75
72762;SHT30;60886;55.034;73.150;2023-05-10T13:33:34;15.07;26.19
72762;SHT30;60886;55.034;73.150;2023-05-10T13:36:36;15.04;25.99
72762;SHT30;60886;55.034;73.150;2023-05-10T13:39:37;14.97;26.26
72762;SHT30;60886;55.034;73.150;2023-05-10T13:42:39;14.97;26.70
72762;SHT30;60886;55.034;73.150;2023-05-10T13:45:40;14.96;26.41
72762;SHT30;60886;55.034;73.150;2023-05-10T13:48:42;14.96;26.26
72762;SHT30;60886;55.034;73.150;2023-05-10T13:51:50;14.97;26.30
72762;SHT30;60886;55.034;73.150;2023-05-10T13:54:52;14.96;26.27
72762;SHT30;60886;55.034;73.150;2023-05-10T13:57:55;15.03;26.88
72762;SHT30;60886;55.034;73.150;2023-05-10T14:00:57;15.07;27.19
72762;SHT30;60886;55.034;73.150;2023-05-10T14:03:59;15.04;27.08
72762;SHT30;60886;55.034;73.150;2023-05-10T14:07:01;14.96;27.04
72762;SHT30;60886;55.034;73.150;2023-05-10T14:10:02;14.89;27.83
72762;SHT30;60886;55.034;73.150;2023-05-10T14:13:04;14.82;27.69
72762;SHT30;60886;55.034;73.150;2023-05-10T14:16:09;14.76;27.65
72762;SHT30;60886;55.034;73.150;2023-05-10T14:19:11;14.71;28.33
72762;SHT30;60886;55.034;73.150;2023-05-10T14:22:17;14.72;29.96
72762;SHT30;60886;55.034;73.150;2023-05-10T14:25:19;14.64;30.94
72762;SHT30;60886;55.034;73.150;2023-05-10T14:28:22;14.64;31.52
72762;SHT30;60886;55.034;73.150;2023-05-10T14:31:24;14.64;29.86
72762;SHT30;60886;55.034;73.150;2023-05-10T14:34:27;14.56;28.58
72762;SHT30;60886;55.034;73.150;2023-05-10T14:37:31;14.54;28.64
72762;SHT30;60886;55.034;73.150;2023-05-10T14:40:32;14.54;28.61
72762;SHT30;60886;55.034;73.150;2023-05-10T14:43:36;14.51;26.54
72762;SHT30;60886;55.034;73.150;2023-05-10T14:46:37;14.49;27.09
72762;SHT30;60886;55.034;73.150;2023-05-10T14:49:39;14.39;28.48
72762;SHT30;60886;55.034;73.150;2023-05-10T14:52:42;14.38;28.04
72762;SHT30;60886;55.034;73.150;2023-05-10T14:55:44;14.42;27.42
72762;SHT30;60886;55.034;73.150;2023-05-10T14:58:45;14.44;27.78
72762;SHT30;60886;55.034;73.150;2023-05-10T15:01:50;14.49;27.26
72762;SHT30;60886;55.034;73.150;2023-05-10T15:04:52;14.48;27.79
72762;SHT30;60886;55.034;73.150;2023-05-10T15:07:53;14.44;27.43
72762;SHT30;60886;55.034;73.150;2023-05-10T15:10:54;14.55;27.90
72762;SHT30;60886;55.034;73.150;2023-05-10T15:13:56;14.54;27.12
72762;SHT30;60886;55.034;73.150;2023-05-10T15:16:58;14.55;27.58
72762;SHT30;60886;55.034;73.150;2023-05-10T15:20:00;14.51;27.74
72762;SHT30;60886;55.034;73.150;2023-05-10T15:23:05;14.42;27.72
72762;SHT30;60886;55.034;73.150;2023-05-10T15:26:06;14.39;27.38
72762;SHT30;60886;55.034;73.150;2023-05-10T15:29:08;14.36;27.33
72762;SHT30;60886;55.034;73.150;2023-05-10T15:32:11;14.31;30.33
72762;SHT30;60886;55.034;73.150;2023-05-10T15:35:12;14.17;28.51
72762;SHT30;60886;55.034;73.150;2023-05-10T15:38:14;14.31;27.19
72762;SHT30;60886;55.034;73.150;2023-05-10T15:41:16;14.36;26.51
72762;SHT30;60886;55.034;73.150;2023-05-10T15:44:18;14.42;26.86
72762;SHT30;60886;55.034;73.150;2023-05-10T15:47:19;14.41;27.36
72762;SHT30;60886;55.034;73.150;2023-05-10T15:50:21;14.36;27.14
72762;SHT30;60886;55.034;73.150;2023-05-10T15:53:22;14.35;28.05
72762;SHT30;60886;55.034;73.150;2023-05-10T15:56:24;14.24;29.29
72762;SHT30;60886;55.034;73.150;2023-05-10T15:59:26;14.12;28.50
72762;SHT30;60886;55.034;73.150;2023-05-10T16:02:28;14.03;29.61
72762;SHT30;60886;55.034;73.150;2023-05-10T16:05:30;13.95;28.99
72762;SHT30;60886;55.034;73.150;2023-05-10T16:08:33;13.95;29.33
72762;SHT30;60886;55.034;73.150;2023-05-10T16:11:35;14.05;28.73
72762;SHT30;60886;55.034;73.150;2023-05-10T16:14:37;14.10;28.75
72762;SHT30;60886;55.034;73.150;2023-05-10T16:17:38;14.11;28.92
72762;SHT30;60886;55.034;73.150;2023-05-10T16:20:40;14.11;28.60
72762;SHT30;60886;55.034;73.150;2023-05-10T16:23:41;14.00;30.85
72762;SHT30;60886;55.034;73.150;2023-05-10T16:26:50;13.94;29.37
72762;SHT30;60886;55.034;73.150;2023-05-10T16:29:51;13.93;30.28
72762;SHT30;60886;55.034;73.150;2023-05-10T16:32:53;14.01;28.92
72762;SHT30;60886;55.034;73.150;2023-05-10T16:35:55;13.95;29.60
72762;SHT30;60886;55.034;73.150;2023-05-10T16:38:56;13.88;28.94
72762;SHT30;60886;55.034;73.150;2023-05-10T16:41:58;13.83;31.73
72762;SHT30;60886;55.034;73.150;2023-05-10T16:45:00;13.73;33.64
72762;SHT30;60886;55.034;73.150;2023-05-10T16:48:07;13.59;34.58
72762;SHT30;60886;55.034;73.150;2023-05-10T16:51:09;13.50;34.81
72762;SHT30;60886;55.034;73.150;2023-05-10T16:54:11;13.51;34.98
72762;SHT30;60886;55.034;73.150;2023-05-10T16:57:12;13.43;34.49
72762;SHT30;60886;55.034;73.150;2023-05-10T17:00:14;13.51;34.73
72762;SHT30;60886;55.034;73.150;2023-05-10T17:03:16;13.57;34.40
72762;SHT30;60886;55.034;73.150;2023-05-10T17:06:17;13.47;34.77
72762;SHT30;60886;55.034;73.150;2023-05-10T17:09:19;13.42;34.96
72762;SHT30;60886;55.034;73.150;2023-05-10T17:12:20;13.42;34.86
72762;SHT30;60886;55.034;73.150;2023-05-10T17:15:22;13.44;34.57
72762;SHT30;60886;55.034;73.150;2023-05-10T17:18:23;13.50;34.85
72762;SHT30;60886;55.034;73.150;2023-05-10T17:21:26;13.49;35.80
72762;SHT30;60886;55.034;73.150;2023-05-10T17:24:27;13.44;35.79
72762;SHT30;60886;55.034;73.150;2023-05-10T17:27:30;13.40;36.17
72762;SHT30;60886;55.034;73.150;2023-05-10T17:30:31;13.42;36.21
72762;SHT30;60886;55.034;73.150;2023-05-10T17:33:32;13.46;36.22
72762;SHT30;60886;55.034;73.150;2023-05-10T17:36:34;13.56;36.46
72762;SHT30;60886;55.034;73.150;2023-05-10T17:39:35;13.60;36.59
72762;SHT30;60886;55.034;73.150;2023-05-10T17:42:37;13.61;36.80
72762;SHT30;60886;55.034;73.150;2023-05-10T17:45:38;13.50;37.17
72762;SHT30;60886;55.034;73.150;2023-05-10T17:48:40;13.54;37.34
72762;SHT30;60886;55.034;73.150;2023-05-10T17:51:50;13.54;37.93
72762;SHT30;60886;55.034;73.150;2023-05-10T17:54:51;13.49;38.24
72762;SHT30;60886;55.034;73.150;2023-05-10T17:57:53;13.38;38.80
72762;SHT30;60886;55.034;73.150;2023-05-10T18:00:58;13.24;40.31
72762;SHT30;60886;55.034;73.150;2023-05-10T18:03:59;13.16;38.73
72762;SHT30;60886;55.034;73.150;2023-05-10T18:07:01;13.16;39.14
72762;SHT30;60886;55.034;73.150;2023-05-10T18:10:03;13.03;39.97
72762;SHT30;60886;55.034;73.150;2023-05-10T18:13:05;13.08;41.34
72762;SHT30;60886;55.034;73.150;2023-05-10T18:16:06;12.96;40.07
72762;SHT30;60886;55.034;73.150;2023-05-10T18:19:11;12.91;42.30
72762;SHT30;60886;55.034;73.150;2023-05-10T18:22:12;12.84;44.01
72762;SHT30;60886;55.034;73.150;2023-05-10T18:25:14;12.88;44.21
72762;SHT30;60886;55.034;73.150;2023-05-10T18:28:15;12.79;45.60
72762;SHT30;60886;55.034;73.150;2023-05-10T18:31:17;12.72;42.72
72762;SHT30;60886;55.034;73.150;2023-05-10T18:34:18;12.72;43.15
72762;SHT30;60886;55.034;73.150;2023-05-10T18:37:20;12.76;43.07
72762;SHT30;60886;55.034;73.150;2023-05-10T18:40:21;12.79;42.83
72762;SHT30;60886;55.034;73.150;2023-05-10T18:43:22;12.81;44.11
72762;SHT30;60886;55.034;73.150;2023-05-10T18:46:24;12.59;44.73
72762;SHT30;60886;55.034;73.150;2023-05-10T18:49:26;12.49;44.31
72762;SHT30;60886;55.034;73.150;2023-05-10T18:52:27;12.55;46.66
72762;SHT30;60886;55.034;73.150;2023-05-10T18:55:29;12.56;46.51
72762;SHT30;60886;55.034;73.150;2023-05-10T18:58:31;12.54;46.31
72762;SHT30;60886;55.034;73.150;2023-05-10T19:01:33;12.37;46.93
72762;SHT30;60886;55.034;73.150;2023-05-10T19:04:35;12.14;49.18
72762;SHT30;60886;55.034;73.150;2023-05-10T19:07:36;12.07;49.62
72762;SHT30;60886;55.034;73.150;2023-05-10T19:10:38;11.97;51.33
72762;SHT30;60886;55.034;73.150;2023-05-10T19:13:39;11.90;53.31
72762;SHT30;60886;55.034;73.150;2023-05-10T19:16:50;11.80;54.06
72762;SHT30;60886;55.034;73.150;2023-05-10T19:19:51;11.70;52.49
72762;SHT30;60886;55.034;73.150;2023-05-10T19:22:53;11.63;52.31
72762;SHT30;60886;55.034;73.150;2023-05-10T19:25:54;11.65;53.33
72762;SHT30;60886;55.034;73.150;2023-05-10T19:28:55;11.58;55.16
72762;SHT30;60886;55.034;73.150;2023-05-10T19:31:57;11.59;55.55
72762;SHT30;60886;55.034;73.150;2023-05-10T19:34:59;11.66;55.52